Time;durP1;ratioP1;P1;durP2;ratioP2;P2;SDS_P1;SDS_P2;PMS_P1;PMS_P2;Temp;Humidity;BMP_temperature;BMP_pressure;BME280_temperature;BME280_humidity;BME280_pressure;Samples;Min_cycle;Max_cycle;Signal;HPM_P1;HPM_P2
2021/03/27 00:02:11;;;;;;;60.88;24.85;;;;;;;7.77;49.33;100888.59;5052824;28;20025;-71
2021/03/27 00:05:07;;;;;;;53.72;23.40;;;;;;;7.80;50.00;100893.63;5056064;28;20095;-65
2021/03/27 00:08:00;;;;;;;84.90;32.58;;;;;;;7.66;50.37;100890.25;5055109;28;20276;-72
2021/03/27 00:11:16;;;;;;;85.00;31.23;;;;;;;7.68;50.36;100892.75;5055826;28;20102;-72
2021/03/27 00:14:01;;;;;;;44.60;18.52;;;;;;;7.13;51.72;100890.72;5059964;28;20247;-70
2021/03/27 00:16:53;;;;;;;43.15;19.30;;;;;;;7.19;51.58;100883.19;5052598;28;20357;-70
2021/03/27 00:20:00;;;;;;;46.90;20.77;;;;;;;7.21;50.91;100885.72;5054380;28;20334;-65
2021/03/27 00:22:46;;;;;;;54.08;20.55;;;;;;;7.27;50.75;100885.28;5060033;28;20041;-66
2021/03/27 00:25:15;;;;;;;52.55;20.75;;;;;;;7.15;50.94;100881.75;5053637;28;20033;-72
2021/03/27 00:27:55;;;;;;;50.65;21.85;;;;;;;7.19;50.78;100885.00;5054284;28;20262;-70
2021/03/27 00:30:42;;;;;;;48.88;20.42;;;;;;;7.08;50.79;100883.16;5057791;28;20044;-65
2021/03/27 00:33:10;;;;;;;51.47;21.02;;;;;;;7.09;50.70;100876.09;5054521;28;20132;-71
2021/03/27 00:35:40;;;;;;;49.05;21.08;;;;;;;7.13;50.65;100883.66;5057885;28;20303;-72
2021/03/27 00:38:11;;;;;;;56.03;22.88;;;;;;;7.05;50.29;100873.69;5053951;28;20289;-70
2021/03/27 00:40:42;;;;;;;49.58;23.02;;;;;;;7.25;50.12;100871.38;5055967;28;20312;-70
2021/03/27 00:43:15;;;;;;;55.15;23.85;;;;;;;7.36;49.57;100882.84;5057154;28;20036;-71
2021/03/27 00:45:43;;;;;;;52.50;23.17;;;;;;;7.52;49.21;100881.69;5058080;28;20037;-65
2021/03/27 00:48:17;;;;;;;59.50;23.65;;;;;;;7.55;49.49;100882.31;5056324;28;20104;-71
2021/03/27 00:50:50;;;;;;;61.30;25.33;;;;;;;7.59;49.94;100882.91;5056025;28;20045;-66
2021/03/27 00:53:33;;;;;;;60.63;26.60;;;;;;;7.50;50.21;100881.81;5057066;28;20029;-70
2021/03/27 00:56:22;;;;;;;64.53;25.20;;;;;;;7.48;50.21;100881.09;5057017;28;20311;-71
2021/03/27 00:58:56;;;;;;;66.70;27.55;;;;;;;7.52;50.33;100879.06;5054186;28;20373;-66
2021/03/27 01:01:23;;;;;;;62.65;27.17;;;;;;;7.42;50.65;100876.25;5056469;28;20226;-65
2021/03/27 01:03:55;;;;;;;58.78;28.60;;;;;;;7.35;51.00;100872.41;5057150;28;20048;-65
2021/03/27 01:06:29;;;;;;;64.70;27.52;;;;;;;7.38;50.50;100872.19;5053746;28;20268;-65
2021/03/27 01:08:56;;;;;;;66.85;26.85;;;;;;;7.43;50.28;100869.19;5055451;28;20356;-70
2021/03/27 01:11:30;;;;;;;59.17;27.25;;;;;;;7.33;51.31;100869.88;5056995;28;20052;-65
2021/03/27 01:13:59;;;;;;;62.40;28.35;;;;;;;7.39;51.04;100868.59;5057363;28;20048;-70
2021/03/27 01:16:32;;;;;;;55.35;26.10;;;;;;;7.40;50.57;100875.53;5054672;28;20029;-66
2021/03/27 01:19:09;;;;;;;56.42;27.23;;;;;;;7.31;50.78;100863.06;5055178;28;20357;-66
2021/03/27 01:21:38;;;;;;;66.72;29.70;;;;;;;7.31;50.67;100879.69;5055138;28;20024;-72
2021/03/27 01:24:08;;;;;;;56.72;28.02;;;;;;;7.28;51.60;100879.94;5053520;28;20098;-71
2021/03/27 01:26:53;;;;;;;58.08;27.80;;;;;;;7.29;50.84;100886.03;5051257;28;20025;-65
2021/03/27 01:29:32;;;;;;;67.45;29.35;;;;;;;7.18;51.67;100888.59;5056696;28;20051;-70
2021/03/27 01:32:23;;;;;;;76.13;28.58;;;;;;;6.98;51.23;100887.41;5054012;28;20028;-65
2021/03/27 01:35:11;;;;;;;93.22;31.65;;;;;;;6.75;51.86;100886.44;5053636;28;20208;-70
2021/03/27 01:37:42;;;;;;;76.53;29.33;;;;;;;6.56;52.29;100888.69;5055343;28;20041;-66
2021/03/27 01:40:26;;;;;;;77.25;27.95;;;;;;;6.45;52.19;100886.81;5053415;28;20104;-66
2021/03/27 01:43:11;;;;;;;100.15;32.22;;;;;;;6.47;52.28;100884.91;5053762;28;20041;-66
2021/03/27 01:46:04;;;;;;;61.45;23.63;;;;;;;6.57;52.40;100887.75;5052114;28;20047;-66
2021/03/27 01:49:02;;;;;;;109.82;35.95;;;;;;;6.53;51.96;100891.53;5055074;28;20058;-66
2021/03/27 01:51:52;;;;;;;40.25;18.10;;;;;;;6.37;52.50;100884.72;5057390;28;20043;-71
2021/03/27 01:54:23;;;;;;;34.45;16.10;;;;;;;6.56;52.30;100893.94;5053456;28;20048;-72
2021/03/27 01:56:59;;;;;;;33.08;15.20;;;;;;;6.54;52.58;100899.31;5052281;28;20323;-65
2021/03/27 01:59:34;;;;;;;32.67;15.20;;;;;;;6.58;52.30;100897.31;5056244;28;20306;-70
2021/03/27 02:02:09;;;;;;;38.83;15.95;;;;;;;6.50;52.22;100900.50;5052443;28;20255;-70
2021/03/27 02:04:40;;;;;;;37.75;15.85;;;;;;;6.54;52.30;100906.38;5055775;28;20311;-71
2021/03/27 02:07:22;;;;;;;37.10;17.15;;;;;;;6.46;52.46;100899.03;5061709;28;20096;-66
2021/03/27 02:10:12;;;;;;;39.28;17.48;;;;;;;6.35;52.17;100888.41;5052670;28;20045;-66
2021/03/27 02:12:57;;;;;;;36.67;16.38;;;;;;;6.51;51.74;100902.16;5046592;28;20266;-70
2021/03/27 02:15:44;;;;;;;45.72;18.10;;;;;;;6.47;51.87;100902.50;5048500;28;20096;-70
2021/03/27 02:18:22;;;;;;;37.03;17.42;;;;;;;6.42;52.66;100907.25;5050966;28;20044;-65
2021/03/27 02:21:03;;;;;;;35.45;16.63;;;;;;;6.20;52.76;100906.06;5058868;28;20234;-66
2021/03/27 02:23:52;;;;;;;35.95;16.27;;;;;;;6.27;53.25;100906.50;5051651;28;20335;-65
2021/03/27 02:26:52;;;;;;;37.22;15.85;;;;;;;5.83;54.13;100907.69;5055573;28;20029;-71
2021/03/27 02:29:31;;;;;;;28.98;14.60;;;;;;;5.90;53.60;100909.00;5052662;28;20029;-66
2021/03/27 02:32:05;;;;;;;32.33;15.15;;;;;;;5.96;53.74;100919.09;5050343;28;20029;-66
2021/03/27 02:34:49;;;;;;;31.38;14.73;;;;;;;5.97;53.75;100907.63;5049328;28;20021;-70
2021/03/27 02:37:39;;;;;;;32.65;15.13;;;;;;;6.18;52.93;100909.75;5050194;28;20033;-70
2021/03/27 02:40:13;;;;;;;32.60;15.13;;;;;;;5.99;54.06;100912.78;5053389;28;20028;-72
2021/03/27 02:42:59;;;;;;;27.55;12.85;;;;;;;5.89;53.96;100915.19;5051379;28;20040;-70
2021/03/27 02:45:42;;;;;;;28.58;13.73;;;;;;;6.09;53.72;100917.31;5053019;28;20071;-65
2021/03/27 02:49:10;;;;;;;28.95;13.68;;;;;;;6.16;52.96;100922.16;5050506;28;20037;-66
2021/03/27 02:51:43;;;;;;;30.55;14.63;;;;;;;5.95;52.59;100917.41;5058002;28;20025;-66
2021/03/27 02:54:28;;;;;;;29.25;14.73;;;;;;;5.89;52.97;100923.09;5052611;28;20412;-65
2021/03/27 02:56:53;;;;;;;29.40;14.10;;;;;;;5.95;52.83;100925.31;5053791;28;20096;-65
2021/03/27 02:59:26;;;;;;;99.28;24.88;;;;;;;5.87;53.40;100924.94;5054418;28;20044;-65
2021/03/27 03:02:01;;;;;;;77.63;21.30;;;;;;;5.95;53.58;100922.66;5045070;28;20029;-66
2021/03/27 03:04:50;;;;;;;42.15;16.70;;;;;;;5.94;53.77;100928.88;5040758;28;20040;-66
2021/03/27 03:07:33;;;;;;;34.20;14.60;;;;;;;5.90;53.13;100929.19;5052149;28;20101;-67
2021/03/27 03:10:56;;;;;;;34.75;14.88;;;;;;;5.84;53.64;100935.66;5052885;28;20087;-67
2021/03/27 03:13:33;;;;;;;34.85;15.27;;;;;;;5.80;53.80;100935.97;5056472;28;20045;-68
2021/03/27 03:16:30;;;;;;;47.45;17.67;;;;;;;5.76;54.22;100936.19;5056241;28;20041;-74
2021/03/27 03:19:05;;;;;;;34.30;15.93;;;;;;;5.80;54.03;100941.22;5050689;28;20041;-70
2021/03/27 03:21:46;;;;;;;28.67;14.40;;;;;;;5.68;54.72;100943.72;5051976;28;20059;-69
2021/03/27 03:24:23;;;;;;;30.50;14.90;;;;;;;5.76;54.01;100938.81;5053423;28;20040;-70
2021/03/27 03:27:13;;;;;;;32.63;14.85;;;;;;;5.84;53.91;100940.94;5045916;28;20453;-70
2021/03/27 03:29:52;;;;;;;30.02;14.82;;;;;;;5.88;53.61;100942.41;5048299;28;20032;-70
2021/03/27 03:32:24;;;;;;;39.90;16.10;;;;;;;5.69;54.05;100936.69;5049511;28;20031;-71
2021/03/27 03:35:04;;;;;;;41.42;16.20;;;;;;;5.75;54.15;100944.16;5060514;28;20044;-71
2021/03/27 03:37:38;;;;;;;45.72;17.23;;;;;;;5.73;53.76;100943.44;5057922;28;20025;-71
2021/03/27 03:40:22;;;;;;;;;;;;;;;5.78;53.31;100944.81;5054870;28;20188;-71
2021/03/27 03:43:02;;;;;;;41.03;17.75;;;;;;;5.57;54.58;100942.75;5053008;28;19920;-71
2021/03/27 03:45:51;;;;;;;45.45;18.30;;;;;;;5.79;53.48;100937.75;5056262;28;20100;-71
2021/03/27 03:48:48;;;;;;;39.60;16.77;;;;;;;5.65;53.48;100936.06;5056087;28;20043;-67
2021/03/27 03:51:45;;;;;;;40.20;16.77;;;;;;;5.36;54.40;100943.22;5057070;28;20047;-70
2021/03/27 03:54:37;;;;;;;33.65;15.23;;;;;;;5.22;54.76;100939.78;5055016;28;20230;-72
2021/03/27 03:57:26;;;;;;;38.67;16.92;;;;;;;5.38;54.78;100941.34;5055861;28;20043;-72
2021/03/27 04:00:15;;;;;;;36.40;16.98;;;;;;;5.59;54.18;100948.75;5056197;28;21458;-71
2021/03/27 04:03:24;;;;;;;35.10;16.35;;;;;;;5.67;53.54;100951.72;5054845;28;20113;-70
2021/03/27 04:05:58;;;;;;;40.53;16.05;;;;;;;5.59;53.77;100951.38;5055379;28;20048;-72
2021/03/27 04:08:23;;;;;;;;;;;;;;;5.54;53.88;100949.06;5055828;28;20354;-71
2021/03/27 04:10:56;;;;;;;35.42;15.70;;;;;;;5.64;53.52;100954.53;5051142;28;19917;-71
2021/03/27 04:13:35;;;;;;;33.55;15.10;;;;;;;5.63;53.10;100958.13;5056379;28;20303;-70
2021/03/27 04:16:06;;;;;;;32.92;14.85;;;;;;;5.39;54.09;100952.69;5056294;28;20231;-71
2021/03/27 04:18:41;;;;;;;29.58;14.18;;;;;;;5.18;54.49;100959.28;5057987;28;20036;-72
2021/03/27 04:21:35;;;;;;;38.40;14.85;;;;;;;5.18;54.64;100967.16;5052611;28;20045;-71
2021/03/27 04:24:19;;;;;;;74.47;22.97;;;;;;;4.92;55.03;100960.94;5055317;28;20196;-71
2021/03/27 04:26:48;;;;;;;;;;;;;;;4.70;55.59;100971.91;5057033;28;20364;-71
2021/03/27 04:29:27;;;;;;;55.50;23.10;;;;;;;4.53;56.55;100975.59;5051246;28;19971;-70
2021/03/27 04:32:07;;;;;;;36.28;14.25;;;;;;;4.53;56.95;100980.81;5054894;28;20036;-72
2021/03/27 04:34:46;;;;;;;26.77;13.52;;;;;;;4.61;56.53;100977.72;5064879;28;20021;-71
2021/03/27 04:37:32;;;;;;;26.95;10.95;;;;;;;5.05;55.49;100986.31;5055059;28;20037;-70
2021/03/27 04:40:03;;;;;;;25.70;10.52;;;;;;;5.40;54.26;100989.34;5051263;28;20041;-72
2021/03/27 04:42:53;;;;;;;22.48;11.40;;;;;;;5.35;54.44;100993.22;5054374;28;20102;-74
2021/03/27 04:45:25;;;;;;;24.67;12.82;;;;;;;5.37;54.43;100994.81;5060427;28;20036;-74
2021/03/27 04:48:19;;;;;;;23.98;12.27;;;;;;;5.36;54.64;100997.53;5063259;28;20131;-73
2021/03/27 04:51:22;;;;;;;32.45;13.40;;;;;;;5.41;54.55;100998.91;5050143;28;20105;-73
2021/03/27 04:54:08;;;;;;;29.17;12.23;;;;;;;5.45;54.14;101008.28;5054681;28;20040;-73
2021/03/27 04:56:58;;;;;;;26.73;11.80;;;;;;;5.60;54.14;101011.72;5053790;28;20323;-73
2021/03/27 04:59:54;;;;;;;24.90;11.57;;;;;;;5.59;54.53;101014.44;5045513;28;20457;-73
2021/03/27 05:02:35;;;;;;;27.83;12.55;;;;;;;5.59;54.30;101006.56;5054413;28;20384;-72
2021/03/27 05:05:04;;;;;;;28.95;13.98;;;;;;;5.75;53.59;101017.75;5055394;28;20071;-71
2021/03/27 05:07:32;;;;;;;28.15;11.82;;;;;;;5.61;53.61;100976.59;5052167;28;20234;-72
2021/03/27 05:10:17;;;;;;;24.17;11.55;;;;;;;5.95;52.48;101027.84;5053707;28;20087;-70
2021/03/27 05:13:26;;;;;;;28.10;11.32;;;;;;;5.81;53.02;101019.97;5054372;28;20259;-71
2021/03/27 05:16:21;;;;;;;32.03;15.60;;;;;;;5.74;53.04;101027.44;5052846;28;20215;-71
2021/03/27 05:19:08;;;;;;;27.08;13.25;;;;;;;5.72;53.87;101036.34;5055127;28;20082;-71
2021/03/27 05:21:36;;;;;;;31.88;15.32;;;;;;;5.95;53.27;101027.84;5054670;28;20227;-71
2021/03/27 05:24:31;;;;;;;37.60;14.32;;;;;;;6.01;53.08;101035.31;5055419;28;20055;-70
2021/03/27 05:27:26;;;;;;;32.45;14.30;;;;;;;6.15;53.04;101037.03;5055082;28;20055;-70
2021/03/27 05:29:59;;;;;;;;;;;;;;;6.16;52.80;101043.97;5054401;28;20032;-71
2021/03/27 05:32:46;;;;;;;54.30;22.48;;;;;;;6.46;51.69;101042.88;5068853;28;19913;-72
2021/03/27 05:35:42;;;;;;;62.95;30.10;;;;;;;6.64;50.89;101042.47;5056673;28;20033;-72
2021/03/27 05:38:19;;;;;;;46.22;24.13;;;;;;;7.02;50.02;101046.88;5053787;28;20028;-71
2021/03/27 05:41:31;;;;;;;52.10;22.30;;;;;;;7.40;49.71;101044.19;5050711;28;20025;-71
2021/03/27 05:44:34;;;;;;;37.67;16.17;;;;;;;7.70;48.31;101043.75;5053135;28;20036;-70
2021/03/27 05:46:59;;;;;;;27.55;14.10;;;;;;;7.96;48.34;101042.69;5051789;28;20033;-71
2021/03/27 05:49:47;;;;;;;31.02;13.95;;;;;;;8.04;47.34;101038.63;5055618;28;20028;-71
2021/03/27 05:52:27;;;;;;;34.38;15.30;;;;;;;8.00;47.60;101043.28;5048168;28;20123;-71
2021/03/27 05:55:04;;;;;;;31.08;13.60;;;;;;;8.15;47.22;101051.88;5053413;28;20041;-71
2021/03/27 05:57:48;;;;;;;27.40;16.13;;;;;;;8.29;46.55;101049.88;5050249;28;20021;-71
2021/03/27 06:00:19;;;;;;;42.17;25.15;;;;;;;8.49;46.26;101048.44;5053370;28;20098;-72
2021/03/27 06:03:16;;;;;;;31.25;18.77;;;;;;;8.88;45.12;101055.06;5052553;28;20036;-73
2021/03/27 06:06:02;;;;;;;33.72;20.42;;;;;;;8.87;44.67;101057.84;5053905;28;20106;-74
2021/03/27 06:08:52;;;;;;;22.17;10.50;;;;;;;9.27;43.92;101055.53;5052260;28;20040;-74
2021/03/27 06:11:55;;;;;;;24.85;11.32;;;;;;;9.66;43.66;101048.06;5052274;28;20047;-74
2021/03/27 06:14:50;;;;;;;22.52;11.38;;;;;;;10.11;42.88;101044.28;5060500;28;20033;-73
2021/03/27 06:17:53;;;;;;;19.70;11.18;;;;;;;10.39;41.90;101056.09;5054404;28;20100;-73
2021/03/27 06:20:38;;;;;;;23.77;14.73;;;;;;;10.31;41.85;101047.94;5056661;28;20072;-73
2021/03/27 06:23:24;;;;;;;18.55;10.15;;;;;;;10.42;42.08;101049.72;5045220;28;20239;-73
2021/03/27 06:26:08;;;;;;;18.85;10.68;;;;;;;10.45;42.53;101049.47;5053779;28;20037;-73
2021/03/27 06:28:55;;;;;;;24.30;11.52;;;;;;;10.51;42.38;101049.78;5043040;28;20064;-73
2021/03/27 06:31:45;;;;;;;25.15;11.10;;;;;;;10.86;42.54;101051.22;5049185;28;20048;-73
2021/03/27 06:34:17;;;;;;;18.35;10.75;;;;;;;10.93;41.62;101049.72;5040523;28;20433;-73
2021/03/27 06:36:48;;;;;;;19.73;9.43;;;;;;;11.03;40.98;101052.44;5042365;28;20065;-73
2021/03/27 06:39:28;;;;;;;20.10;10.60;;;;;;;11.37;40.49;101052.97;5059366;28;20044;-74
2021/03/27 06:42:11;;;;;;;30.38;10.65;;;;;;;11.56;40.04;101045.09;5061287;28;20289;-74
2021/03/27 06:45:15;;;;;;;22.83;10.45;;;;;;;12.01;38.79;101041.94;5051685;28;20041;-71
2021/03/27 06:48:02;;;;;;;19.17;10.48;;;;;;;12.18;38.94;101043.91;5053547;28;20327;-71
2021/03/27 06:50:52;;;;;;;27.80;11.63;;;;;;;12.30;38.12;101044.59;5052158;28;20033;-71
2021/03/27 06:53:26;;;;;;;20.33;11.52;;;;;;;12.33;37.87;101049.63;5053642;28;20107;-71
2021/03/27 06:56:12;;;;;;;22.17;11.73;;;;;;;12.30;38.17;101042.75;5053769;28;20238;-71
2021/03/27 06:59:02;;;;;;;23.42;12.02;;;;;;;12.53;39.21;101048.63;5052311;28;20183;-71
2021/03/27 07:01:59;;;;;;;22.85;12.25;;;;;;;12.75;37.79;101055.44;5052506;28;20032;-71
2021/03/27 07:04:28;;;;;;;23.73;11.98;;;;;;;12.91;38.32;101049.50;5052222;28;20032;-71
2021/03/27 07:07:27;;;;;;;19.40;11.32;;;;;;;13.13;38.74;101049.13;5061305;28;20027;-72
2021/03/27 07:10:26;;;;;;;22.40;11.70;;;;;;;13.36;37.51;101058.44;5058408;28;20045;-71
2021/03/27 07:13:28;;;;;;;21.65;10.70;;;;;;;13.60;37.79;101049.94;5051893;28;20052;-71
2021/03/27 07:16:26;;;;;;;37.80;14.65;;;;;;;13.73;36.87;101057.53;5051711;28;20360;-71
2021/03/27 07:19:05;;;;;;;18.83;11.20;;;;;;;13.53;37.44;101056.84;5051818;28;20127;-71
2021/03/27 07:22:05;;;;;;;21.90;11.80;;;;;;;13.38;37.70;101061.78;5052396;28;20032;-71
2021/03/27 07:24:49;;;;;;;20.05;11.82;;;;;;;13.52;37.10;101060.44;5051295;28;20049;-71
2021/03/27 07:27:37;;;;;;;23.77;12.85;;;;;;;13.93;36.73;101056.41;5053975;28;20029;-71
2021/03/27 07:30:15;;;;;;;24.45;12.23;;;;;;;13.84;37.00;101061.81;5059137;28;20028;-72
2021/03/27 07:32:55;;;;;;;25.65;12.65;;;;;;;14.17;37.30;101057.63;5051654;28;20027;-71
2021/03/27 07:35:45;;;;;;;21.20;11.82;;;;;;;14.21;37.05;101057.16;5054150;28;20025;-71
2021/03/27 07:38:42;;;;;;;24.40;12.45;;;;;;;14.54;36.05;101060.13;5053394;28;20040;-71
2021/03/27 07:41:38;;;;;;;23.00;12.65;;;;;;;14.56;35.70;101058.97;5051346;28;20037;-72
2021/03/27 07:44:41;;;;;;;28.45;12.18;;;;;;;14.47;36.00;101059.06;5050936;28;20028;-72
2021/03/27 07:47:49;;;;;;;24.90;12.52;;;;;;;14.42;36.23;101058.66;5053287;28;20265;-71
2021/03/27 07:50:27;;;;;;;24.77;13.25;;;;;;;14.84;35.72;101062.34;5053992;28;20083;-71
2021/03/27 07:53:11;;;;;;;25.17;12.80;;;;;;;14.85;35.68;101057.84;5056094;28;20033;-73
2021/03/27 07:56:14;;;;;;;21.88;12.43;;;;;;;15.17;35.17;101060.69;5052274;28;20344;-68
2021/03/27 07:58:48;;;;;;;25.05;14.10;;;;;;;15.57;34.56;101053.84;5049205;28;20029;-65
2021/03/27 08:01:42;;;;;;;25.90;13.88;;;;;;;15.43;33.95;101052.63;5050337;28;20100;-72
2021/03/27 08:04:21;;;;;;;27.10;13.40;;;;;;;15.69;34.15;101055.25;5051170;28;20067;-71
2021/03/27 08:07:02;;;;;;;22.75;13.77;;;;;;;16.07;33.75;101044.97;5052387;28;20060;-71
2021/03/27 08:09:43;;;;;;;20.05;12.85;;;;;;;16.18;33.58;101052.66;5043639;28;20091;-71
2021/03/27 08:12:46;;;;;;;26.15;12.73;;;;;;;15.86;33.39;101051.63;5051233;28;20032;-71
2021/03/27 08:15:17;;;;;;;21.08;13.15;;;;;;;15.87;33.90;101050.63;5041670;28;20065;-66
2021/03/27 08:17:56;;;;;;;24.30;13.27;;;;;;;15.99;32.69;101044.97;5050150;28;20033;-67
2021/03/27 08:20:27;;;;;;;24.52;12.88;;;;;;;16.16;32.27;101043.97;5060407;28;20033;-67
2021/03/27 08:23:30;;;;;;;25.60;12.75;;;;;;;16.26;32.73;101031.28;5052811;28;20056;-68
2021/03/27 08:26:20;;;;;;;24.05;12.35;;;;;;;16.63;32.76;101040.59;5045243;28;20072;-67
2021/03/27 08:29:02;;;;;;;23.38;13.38;;;;;;;16.87;31.78;101038.75;5056729;28;20025;-71
2021/03/27 08:32:08;;;;;;;21.88;12.00;;;;;;;17.13;31.78;101035.84;5090801;28;20121;-66
2021/03/27 08:34:52;;;;;;;23.70;12.05;;;;;;;17.13;30.75;101035.84;5054642;28;20049;-71
2021/03/27 08:37:39;;;;;;;20.85;12.77;;;;;;;17.23;30.75;101036.47;5055986;28;20033;-66
2021/03/27 08:40:10;;;;;;;26.70;12.75;;;;;;;17.36;30.77;101033.22;5045271;28;20045;-72
2021/03/27 08:43:03;;;;;;;22.83;12.40;;;;;;;17.26;30.57;101031.75;5055800;28;20044;-67
2021/03/27 08:46:13;;;;;;;19.45;11.88;;;;;;;16.78;31.51;101028.25;5044713;28;20057;-71
2021/03/27 08:49:14;;;;;;;79.97;27.70;;;;;;;16.98;30.58;101034.88;5054055;28;20294;-71
2021/03/27 08:51:45;;;;;;;20.38;12.63;;;;;;;16.70;31.81;101030.94;5056464;28;20238;-71
2021/03/27 08:54:46;;;;;;;16.98;10.85;;;;;;;16.72;31.20;101029.78;5049088;28;20074;-72
2021/03/27 08:57:29;;;;;;;15.75;10.88;;;;;;;17.12;29.75;101026.13;5038348;28;20343;-71
2021/03/27 09:00:05;;;;;;;17.60;9.88;;;;;;;17.31;29.81;101022.19;5044673;28;20069;-71
2021/03/27 09:02:40;;;;;;;20.20;9.80;;;;;;;17.46;29.71;101022.28;5056291;28;20041;-67
2021/03/27 09:05:16;;;;;;;19.75;10.88;;;;;;;17.22;30.85;101018.72;5044618;28;20056;-71
2021/03/27 09:08:18;;;;;;;17.67;10.45;;;;;;;17.26;30.19;101011.19;5052590;28;20075;-67
2021/03/27 09:11:06;;;;;;;20.02;11.32;;;;;;;17.36;30.83;101016.31;5062747;28;20043;-73
2021/03/27 09:13:44;;;;;;;20.17;10.88;;;;;;;17.33;30.29;101004.13;5052965;28;20032;-72
2021/03/27 09:16:28;;;;;;;21.67;10.48;;;;;;;17.21;29.30;101003.69;5046633;28;20037;-66
2021/03/27 09:19:08;;;;;;;19.80;10.65;;;;;;;17.18;28.72;101006.69;5057064;28;20043;-67
2021/03/27 09:21:58;;;;;;;20.45;12.10;;;;;;;17.30;29.63;101003.63;5058384;28;20127;-72
2021/03/27 09:24:30;;;;;;;21.42;12.27;;;;;;;17.11;30.77;101003.06;5047171;28;20033;-67
2021/03/27 09:27:31;;;;;;;19.65;10.98;;;;;;;17.21;29.75;100990.28;5052081;28;20032;-71
2021/03/27 09:30:34;;;;;;;18.85;10.73;;;;;;;17.30;30.00;100988.41;5044196;28;20037;-69
2021/03/27 09:33:21;;;;;;;23.27;12.07;;;;;;;17.24;29.35;100983.75;5054233;28;20086;-65
2021/03/27 09:36:11;;;;;;;50.92;20.63;;;;;;;17.15;29.16;100979.44;5061987;28;20052;-70
2021/03/27 09:38:45;;;;;;;24.60;11.52;;;;;;;17.31;30.21;100973.19;5052554;28;20370;-71
2021/03/27 09:41:44;;;;;;;19.58;11.27;;;;;;;17.40;31.29;100974.81;5046608;28;20033;-66
2021/03/27 09:44:36;;;;;;;23.65;12.52;;;;;;;17.26;30.30;100971.03;5058491;28;20032;-71
2021/03/27 09:47:11;;;;;;;21.40;11.85;;;;;;;17.15;29.87;100966.91;5057504;28;20091;-66
2021/03/27 09:49:45;;;;;;;;;;;;;;;16.91;28.80;100965.19;5046056;28;20036;-71
2021/03/27 09:52:26;;;;;;;22.92;10.45;;;;;;;16.86;29.47;100964.88;5053387;28;19948;-71
2021/03/27 09:55:05;;;;;;;20.65;11.20;;;;;;;16.89;28.64;100953.81;5043866;28;20057;-69
2021/03/27 09:57:46;;;;;;;20.35;11.07;;;;;;;16.92;28.63;100950.78;5055916;28;20195;-67
2021/03/27 10:00:17;;;;;;;19.35;10.38;;;;;;;17.05;29.40;100960.09;5054934;28;20250;-73
2021/03/27 10:02:49;;;;;;;17.83;10.85;;;;;;;17.01;29.42;100948.91;5055739;28;20025;-66
2021/03/27 10:05:37;;;;;;;24.52;12.27;;;;;;;16.68;30.68;100953.56;5056191;28;20033;-67
2021/03/27 10:08:16;;;;;;;20.27;11.40;;;;;;;16.55;29.23;100943.34;5053294;28;20207;-72
2021/03/27 10:11:17;;;;;;;24.48;11.93;;;;;;;16.07;30.18;100936.25;5053117;28;20056;-66
2021/03/27 10:14:20;;;;;;;20.90;11.60;;;;;;;15.78;31.55;100941.28;5052360;28;20044;-66
2021/03/27 10:16:59;;;;;;;20.05;12.23;;;;;;;15.90;31.22;100932.78;5053037;28;20037;-66
2021/03/27 10:19:41;;;;;;;19.77;11.45;;;;;;;15.99;31.02;100933.59;5051352;28;20092;-72
2021/03/27 10:22:09;;;;;;;17.50;10.10;;;;;;;16.09;30.40;100936.09;5050154;28;20026;-67
2021/03/27 10:25:02;;;;;;;17.33;9.45;;;;;;;16.18;30.47;100929.72;5052146;28;20223;-71
2021/03/27 10:27:59;;;;;;;15.93;9.05;;;;;;;16.39;29.55;100927.34;5050952;28;20037;-72
2021/03/27 10:30:40;;;;;;;15.98;8.82;;;;;;;16.28;29.68;100923.19;5044062;28;20034;-66
2021/03/27 10:33:06;;;;;;;16.42;9.00;;;;;;;16.28;29.34;100919.69;5054155;28;20338;-67
2021/03/27 10:35:47;;;;;;;14.77;8.80;;;;;;;16.43;28.39;100907.28;5043034;28;20064;-72
2021/03/27 10:38:49;;;;;;;13.95;8.93;;;;;;;16.36;28.03;100918.84;5050996;28;20029;-71
2021/03/27 10:41:39;;;;;;;16.92;8.85;;;;;;;16.39;29.08;100915.81;5053294;28;20041;-71
2021/03/27 10:44:15;;;;;;;18.98;8.98;;;;;;;16.61;28.44;100917.75;5049056;28;20052;-71
2021/03/27 10:47:11;;;;;;;15.07;9.38;;;;;;;16.65;28.87;100915.59;5052420;28;20112;-67
2021/03/27 10:49:56;;;;;;;16.75;9.07;;;;;;;16.76;27.71;100908.06;5053026;28;20104;-72
2021/03/27 10:52:32;;;;;;;;;;;;;;;16.80;26.29;100906.72;5054006;28;20219;-72
2021/03/27 10:55:19;;;;;;;18.33;8.90;;;;;;;16.57;27.18;100911.91;5050914;28;19954;-72
2021/03/27 10:58:06;;;;;;;17.92;9.50;;;;;;;16.58;27.86;100902.06;5051028;28;20215;-68
2021/03/27 11:00:56;;;;;;;20.70;10.10;;;;;;;16.48;28.19;100904.94;5050904;28;20103;-72
2021/03/27 11:03:42;;;;;;;17.05;9.23;;;;;;;16.41;29.46;100908.47;5048955;28;20028;-66
2021/03/27 11:06:16;;;;;;;15.75;9.20;;;;;;;16.03;29.19;100892.19;5052053;28;20027;-66
2021/03/27 11:09:15;;;;;;;17.90;9.13;;;;;;;16.11;29.17;100897.50;5052363;28;20036;-73
2021/03/27 11:12:18;;;;;;;18.77;9.98;;;;;;;16.18;29.44;100890.47;5052791;28;20227;-73
2021/03/27 11:15:08;;;;;;;22.30;10.32;;;;;;;16.11;28.47;100884.16;5051195;28;20039;-67
2021/03/27 11:17:54;;;;;;;16.17;9.65;;;;;;;16.21;29.28;100883.97;5057100;28;20143;-66
2021/03/27 11:20:52;;;;;;;16.80;9.73;;;;;;;16.30;29.14;100882.94;5060611;28;20024;-67
2021/03/27 11:23:34;;;;;;;20.05;9.23;;;;;;;16.52;28.58;100886.69;5051804;28;20033;-66
2021/03/27 11:26:05;;;;;;;17.38;9.63;;;;;;;16.40;29.18;100880.06;5054155;28;20255;-71
2021/03/27 11:28:51;;;;;;;15.32;8.35;;;;;;;16.44;28.30;100886.72;5060511;28;20068;-66
2021/03/27 11:31:30;;;;;;;17.55;9.45;;;;;;;16.38;28.54;100874.06;5052624;28;20033;-66
2021/03/27 11:34:27;;;;;;;17.50;9.75;;;;;;;16.40;28.95;100880.06;5052136;28;20150;-72
2021/03/27 11:37:36;;;;;;;16.27;9.80;;;;;;;16.39;28.33;100876.56;5051816;28;20228;-73
2021/03/27 11:40:39;;;;;;;27.73;10.68;;;;;;;16.42;29.78;100872.72;5049680;28;20105;-69
2021/03/27 11:43:20;;;;;;;15.75;9.43;;;;;;;16.57;29.69;100869.13;5052050;28;20193;-66
2021/03/27 11:46:04;;;;;;;23.55;10.82;;;;;;;16.61;28.24;100865.09;5052164;28;20231;-66
2021/03/27 11:48:40;;;;;;;19.52;10.45;;;;;;;16.54;27.56;100864.13;5051621;28;20028;-67
2021/03/27 11:51:24;;;;;;;17.52;9.43;;;;;;;16.59;27.65;100853.75;5055075;28;20440;-72
2021/03/27 11:54:00;;;;;;;16.58;9.60;;;;;;;16.34;27.92;100854.84;5051880;28;20024;-66
2021/03/27 11:56:46;;;;;;;22.05;11.15;;;;;;;16.42;29.27;100851.31;5052164;28;20040;-66
2021/03/27 11:59:42;;;;;;;24.40;10.15;;;;;;;16.44;29.02;100847.47;5051142;28;20053;-66
2021/03/27 12:02:35;;;;;;;20.30;10.40;;;;;;;16.12;29.81;100845.75;5055758;28;20035;-71
2021/03/27 12:05:46;;;;;;;24.63;10.77;;;;;;;16.12;29.12;100842.25;5055273;28;20097;-66
2021/03/27 12:08:38;;;;;;;21.50;11.60;;;;;;;16.08;29.08;100832.91;5088133;28;20377;-66
2021/03/27 12:11:37;;;;;;;19.77;10.80;;;;;;;16.10;28.94;100834.38;5054561;28;20044;-73
2021/03/27 12:14:32;;;;;;;20.67;10.75;;;;;;;16.06;28.97;100827.72;5052280;28;20033;-72
2021/03/27 12:17:11;;;;;;;;;;;;;;;16.07;31.06;100829.38;5055458;28;20029;-72
2021/03/27 12:19:47;;;;;;;18.63;10.27;;;;;;;15.90;30.72;100830.44;5056359;28;20135;-66
2021/03/27 12:22:22;;;;;;;19.25;10.98;;;;;;;15.91;29.85;100829.44;5056623;28;20033;-71
2021/03/27 12:25:29;;;;;;;19.95;10.15;;;;;;;16.10;29.67;100829.03;5055375;28;20099;-71
2021/03/27 12:28:09;;;;;;;22.13;10.65;;;;;;;16.26;28.93;100820.16;5058676;28;20347;-67
2021/03/27 12:30:35;;;;;;;16.70;9.45;;;;;;;16.18;28.51;100818.34;5057448;28;20044;-66
2021/03/27 12:33:09;;;;;;;19.25;9.82;;;;;;;16.23;29.03;100815.97;5056341;28;20219;-72
2021/03/27 12:35:47;;;;;;;18.17;9.32;;;;;;;16.26;28.93;100812.97;5056108;28;20057;-71
2021/03/27 12:38:15;;;;;;;17.77;9.30;;;;;;;16.28;26.84;100815.47;5055158;28;20036;-66